createdAt,value
2023-01-05T00:01:12.040Z,11.70
2023-01-05T00:03:39.018Z,11.70
2023-01-05T00:06:13.129Z,11.70
2023-01-05T00:08:40.685Z,11.70
2023-01-05T00:11:29.884Z,11.70
2023-01-05T00:14:15.415Z,11.60
2023-01-05T00:17:00.823Z,11.60
2023-01-05T00:19:46.373Z,11.60
2023-01-05T00:22:30.888Z,11.70
2023-01-05T00:25:03.522Z,11.60
2023-01-05T00:27:36.271Z,11.60
2023-01-05T00:30:03.488Z,11.60
2023-01-05T00:32:30.095Z,11.60
2023-01-05T00:34:58.073Z,11.60
2023-01-05T00:37:27.789Z,11.60
2023-01-05T00:39:54.423Z,11.60
2023-01-05T00:42:21.220Z,11.60
2023-01-05T00:44:47.943Z,11.50
2023-01-05T00:47:14.710Z,11.50
2023-01-05T00:49:42.008Z,11.60
2023-01-05T00:52:08.893Z,11.50
2023-01-05T00:54:35.558Z,11.50
2023-01-05T00:57:02.670Z,11.50
2023-01-05T00:59:29.293Z,11.50
2023-01-05T01:01:56.058Z,11.50
2023-01-05T01:04:22.903Z,11.50
2023-01-05T01:06:49.587Z,11.50
2023-01-05T01:09:16.294Z,11.50
2023-01-05T01:11:42.968Z,11.40
2023-01-05T01:14:11.607Z,11.40
2023-01-05T01:16:38.532Z,11.40
2023-01-05T01:19:05.703Z,11.40
2023-01-05T01:21:32.525Z,11.40
2023-01-05T01:23:59.111Z,11.30
2023-01-05T01:26:25.702Z,11.30
2023-01-05T01:28:52.315Z,11.30
2023-01-05T01:31:19.037Z,11.30
2023-01-05T01:33:45.684Z,11.30
2023-01-05T01:36:12.451Z,11.20
2023-01-05T01:38:39.215Z,11.30
2023-01-05T01:41:05.912Z,11.30
2023-01-05T01:43:50.775Z,11.20
2023-01-05T01:46:18.925Z,11.20
2023-01-05T01:48:58.924Z,11.20
2023-01-05T01:51:41.200Z,11.20
2023-01-05T01:54:11.601Z,11.20
2023-01-05T01:56:45.623Z,11.20
2023-01-05T01:59:13.342Z,11.10
2023-01-05T02:01:40.588Z,11.20
2023-01-05T02:04:09.078Z,11.20
2023-01-05T02:06:36.064Z,11.10
2023-01-05T02:09:04.291Z,11.20
2023-01-05T02:12:04.585Z,11.20
2023-01-05T02:15:04.490Z,11.20
2023-01-05T02:17:48.762Z,11.10
2023-01-05T02:20:49.608Z,11.10
2023-01-05T02:23:37.772Z,11.10
2023-01-05T02:26:28.868Z,11.10
2023-01-05T02:29:29.023Z,11.10
2023-01-05T02:32:21.855Z,11.10
2023-01-05T02:35:21.158Z,11.10
2023-01-05T02:37:57.815Z,11.10
2023-01-05T02:40:29.532Z,11.00
2023-01-05T02:42:57.784Z,11.00
2023-01-05T02:45:24.838Z,11.00
2023-01-05T02:47:51.503Z,11.00
2023-01-05T02:50:30.157Z,11.00
2023-01-05T02:53:09.578Z,11.00
2023-01-05T02:55:41.942Z,10.90
2023-01-05T02:58:21.188Z,11.00
2023-01-05T03:00:57.188Z,11.00
2023-01-05T03:03:43.373Z,11.00
2023-01-05T03:06:22.865Z,10.90
2023-01-05T03:08:53.862Z,11.00
2023-01-05T03:11:39.520Z,11.00
2023-01-05T03:14:15.441Z,11.00
2023-01-05T03:16:45.746Z,11.00
2023-01-05T03:19:33.296Z,11.00
2023-01-05T03:22:22.795Z,10.90
2023-01-05T03:25:09.345Z,11.00
2023-01-05T03:27:55.460Z,11.00
2023-01-05T03:30:47.485Z,11.10
2023-01-05T03:33:47.505Z,11.00
2023-01-05T03:36:18.359Z,11.00
2023-01-05T03:38:48.107Z,11.00
2023-01-05T03:41:16.418Z,11.10
2023-01-05T03:43:43.708Z,11.00
2023-01-05T03:46:14.583Z,11.00
2023-01-05T03:48:41.307Z,11.00
2023-01-05T03:51:08.655Z,10.90
2023-01-05T03:53:35.264Z,11.00
2023-01-05T03:56:02.192Z,10.90
2023-01-05T03:58:28.880Z,10.80
2023-01-05T04:00:55.493Z,10.70
2023-01-05T04:03:26.323Z,10.70
2023-01-05T04:05:56.227Z,10.60
2023-01-05T04:08:22.829Z,10.60
2023-01-05T04:10:53.022Z,10.70
2023-01-05T04:13:20.178Z,10.70
2023-01-05T04:15:46.830Z,10.60
2023-01-05T04:18:13.514Z,10.60
2023-01-05T04:20:40.142Z,10.70
2023-01-05T04:23:06.735Z,10.70
2023-01-05T04:25:33.362Z,10.60
2023-01-05T04:28:00.103Z,10.60
2023-01-05T04:30:26.735Z,10.70
2023-01-05T04:32:53.994Z,10.70
2023-01-05T04:35:20.585Z,10.70
2023-01-05T04:37:47.194Z,10.60
2023-01-05T04:40:13.894Z,10.60
2023-01-05T04:42:40.453Z,10.50
2023-01-05T04:45:07.519Z,10.50
2023-01-05T04:47:34.131Z,10.50
2023-01-05T04:50:00.736Z,10.50
2023-01-05T04:52:27.300Z,10.50
2023-01-05T04:54:54.166Z,10.50
2023-01-05T04:57:20.819Z,10.50
2023-01-05T04:59:47.455Z,10.50
2023-01-05T05:02:14.746Z,10.60
2023-01-05T05:04:41.499Z,10.60
2023-01-05T05:07:08.135Z,10.60
2023-01-05T05:09:34.709Z,10.60
2023-01-05T05:12:01.291Z,10.60
2023-01-05T05:14:28.002Z,10.60
2023-01-05T05:16:54.631Z,10.50
2023-01-05T05:19:21.302Z,10.40
2023-01-05T05:21:47.975Z,10.40
2023-01-05T05:24:14.615Z,10.40
2023-01-05T05:26:41.201Z,10.40
2023-01-05T05:29:07.843Z,10.40
2023-01-05T05:31:34.675Z,10.40
2023-01-05T05:34:01.365Z,10.40
2023-01-05T05:36:27.964Z,10.40
2023-01-05T05:38:54.718Z,10.40
2023-01-05T05:41:21.319Z,10.30
2023-01-05T05:43:47.882Z,10.30
2023-01-05T05:46:14.505Z,10.30
2023-01-05T05:48:41.152Z,10.30
2023-01-05T05:51:07.822Z,10.30
2023-01-05T05:53:34.510Z,10.30
2023-01-05T05:56:01.133Z,10.30
2023-01-05T05:58:27.745Z,10.30
2023-01-05T06:00:59.152Z,10.30
2023-01-05T06:03:25.917Z,10.40
2023-01-05T06:05:52.967Z,10.30
2023-01-05T06:08:19.578Z,10.30
2023-01-05T06:10:46.129Z,10.30
2023-01-05T06:13:12.786Z,10.30
2023-01-05T06:15:39.378Z,10.30
2023-01-05T06:18:06.027Z,10.30
2023-01-05T06:20:32.691Z,10.30
2023-01-05T06:22:59.324Z,10.30
2023-01-05T06:25:26.013Z,10.30
2023-01-05T06:27:52.600Z,10.30
2023-01-05T06:30:19.622Z,10.30
2023-01-05T06:32:46.195Z,10.30
2023-01-05T06:35:12.972Z,10.30
2023-01-05T06:37:39.802Z,10.30
2023-01-05T06:40:08.683Z,10.30
2023-01-05T06:42:36.346Z,10.40
2023-01-05T06:45:03.406Z,10.40
2023-01-05T06:47:29.994Z,10.40
2023-01-05T06:49:56.811Z,10.40
2023-01-05T06:52:23.573Z,10.40
2023-01-05T06:54:50.187Z,10.40
2023-01-05T06:57:16.775Z,10.40
2023-01-05T06:59:43.332Z,10.40
2023-01-05T07:02:17.008Z,10.40
2023-01-05T07:04:43.873Z,10.40
2023-01-05T07:07:14.641Z,10.40
2023-01-05T07:09:41.663Z,10.40
2023-01-05T07:12:08.707Z,10.40
2023-01-05T07:14:35.265Z,10.40
2023-01-05T07:17:02.308Z,10.20
2023-01-05T07:19:28.960Z,10.20
2023-01-05T07:21:57.076Z,10.20
2023-01-05T07:24:23.959Z,10.10
2023-01-05T07:26:50.690Z,10.10
2023-01-05T07:29:17.780Z,10.10
2023-01-05T07:31:44.450Z,10.30
2023-01-05T07:34:11.141Z,10.30
2023-01-05T07:36:37.704Z,10.30
2023-01-05T07:39:04.483Z,10.30
2023-01-05T07:41:31.060Z,10.30
2023-01-05T07:43:57.655Z,10.40
2023-01-05T07:46:24.332Z,10.30
2023-01-05T07:48:50.978Z,10.30
2023-01-05T07:51:18.120Z,10.20
2023-01-05T07:53:44.919Z,10.20
2023-01-05T07:56:12.603Z,10.20
2023-01-05T07:58:39.438Z,10.10
2023-01-05T08:01:14.499Z,10.10
2023-01-05T08:03:41.369Z,10.10
2023-01-05T08:06:11.332Z,10.20
2023-01-05T08:08:38.533Z,10.20
2023-01-05T08:11:07.290Z,10.20
2023-01-05T08:13:52.792Z,10.20
2023-01-05T08:16:20.032Z,10.20
2023-01-05T08:18:46.948Z,10.30
2023-01-05T08:21:14.190Z,10.30
2023-01-05T08:23:40.974Z,10.30
2023-01-05T08:26:13.586Z,10.30
2023-01-05T08:28:40.503Z,10.20
2023-01-05T08:31:13.808Z,10.30
2023-01-05T08:33:40.578Z,10.20
2023-01-05T08:36:13.176Z,10.20
2023-01-05T08:38:47.852Z,10.20
2023-01-05T08:41:25.384Z,10.30
2023-01-05T08:43:54.310Z,10.30
2023-01-05T08:46:23.224Z,10.30
2023-01-05T08:48:54.315Z,10.40
2023-01-05T08:51:21.594Z,10.40
2023-01-05T08:53:48.692Z,10.40
2023-01-05T08:56:15.709Z,10.40
2023-01-05T08:58:43.059Z,10.40
2023-01-05T09:01:11.732Z,10.40
2023-01-05T09:03:38.791Z,10.50
2023-01-05T09:06:06.634Z,10.50
2023-01-05T09:08:33.950Z,10.50
2023-01-05T09:11:27.270Z,10.50
2023-01-05T09:13:56.412Z,10.50
2023-01-05T09:16:57.234Z,10.60
2023-01-05T09:19:13.093Z,10.60
2023-01-05T09:21:39.855Z,10.60
2023-01-05T09:24:08.117Z,10.60
2023-01-05T09:26:34.777Z,10.60
2023-01-05T09:29:01.412Z,10.60
2023-01-05T09:31:28.084Z,10.60
2023-01-05T09:33:56.179Z,10.70
2023-01-05T09:36:24.237Z,10.70
2023-01-05T09:38:54.426Z,10.70
2023-01-05T09:41:25.946Z,10.70
2023-01-05T09:44:05.155Z,10.70
2023-01-05T09:46:38.687Z,10.70
2023-01-05T09:49:10.513Z,10.70
2023-01-05T09:51:37.179Z,10.70
2023-01-05T09:54:04.505Z,10.70
2023-01-05T09:59:31.185Z,10.70
2023-01-05T10:02:07.011Z,10.70
2023-01-05T10:04:34.525Z,10.70
2023-01-05T10:07:20.564Z,10.70
2023-01-05T10:09:48.367Z,10.70
2023-01-05T10:12:52.450Z,10.80
2023-01-05T10:15:21.460Z,10.80
2023-01-05T10:17:48.674Z,10.80
2023-01-05T10:20:32.194Z,10.80
2023-01-05T10:23:20.366Z,10.80
2023-01-05T10:26:26.212Z,10.90
2023-01-05T10:29:04.837Z,10.80
2023-01-05T10:31:43.471Z,10.80
2023-01-05T10:34:23.330Z,10.90
2023-01-05T10:37:09.387Z,10.90
2023-01-05T10:40:08.953Z,10.90
2023-01-05T10:43:12.766Z,10.90
2023-01-05T10:46:03.062Z,10.90
2023-01-05T10:48:31.202Z,10.90
2023-01-05T10:50:58.604Z,10.90
2023-01-05T10:53:27.534Z,10.90
2023-01-05T10:55:56.910Z,10.90
2023-01-05T10:58:26.019Z,10.90
2023-01-05T11:00:56.269Z,10.90
2023-01-05T11:04:23.762Z,10.90
2023-01-05T11:06:30.193Z,11.00
2023-01-05T11:09:26.588Z,11.00
2023-01-05T11:11:58.605Z,11.00
2023-01-05T11:14:27.089Z,11.10
2023-01-05T11:17:00.422Z,11.10
2023-01-05T11:19:32.508Z,11.10
2023-01-05T11:22:02.135Z,11.20
2023-01-05T11:24:34.607Z,11.20
2023-01-05T11:27:05.385Z,11.20
2023-01-05T11:29:31.994Z,11.20
2023-01-05T11:32:06.408Z,11.20
2023-01-05T11:34:45.802Z,11.20
2023-01-05T11:37:12.473Z,11.20
2023-01-05T11:40:01.249Z,11.20
2023-01-05T11:42:32.308Z,11.30
2023-01-05T11:45:07.489Z,11.20
2023-01-05T11:47:43.202Z,11.30
2023-01-05T11:50:13.014Z,11.30
2023-01-05T11:52:42.252Z,11.30
2023-01-05T11:55:21.642Z,11.30
2023-01-05T11:57:54.125Z,11.30
2023-01-05T12:00:26.493Z,11.30
2023-01-05T12:03:26.641Z,11.30
2023-01-05T12:06:24.870Z,11.40
2023-01-05T12:09:24.138Z,11.40
2023-01-05T12:12:02.284Z,11.40
2023-01-05T12:14:54.744Z,11.40
2023-01-05T12:17:37.262Z,11.50
2023-01-05T12:20:35.432Z,11.50
2023-01-05T12:23:20.116Z,11.50
2023-01-05T12:26:19.452Z,11.50
2023-01-05T12:34:01.519Z,11.50
2023-01-05T12:36:01.702Z,11.40
2023-01-05T12:38:48.756Z,11.40
2023-01-05T12:41:30.154Z,11.30
2023-01-05T12:44:20.400Z,11.30
2023-01-05T12:46:46.982Z,11.30
2023-01-05T12:49:24.074Z,11.30
2023-01-05T12:52:06.593Z,11.30
2023-01-05T12:54:44.056Z,11.30
2023-01-05T12:57:33.602Z,11.30
2023-01-05T13:00:13.651Z,11.30
2023-01-05T13:03:03.794Z,11.40
2023-01-05T13:05:34.185Z,11.60
2023-01-05T13:08:06.600Z,11.60
2023-01-05T13:10:33.166Z,11.70
2023-01-05T13:13:10.806Z,11.70
2023-01-05T13:15:49.306Z,11.80
2023-01-05T13:18:19.163Z,11.90
2023-01-05T13:20:52.863Z,11.90
2023-01-05T13:23:25.407Z,12.00
2023-01-05T13:26:07.450Z,12.00
2023-01-05T13:28:35.048Z,12.00
2023-01-05T13:31:19.166Z,12.00
2023-01-05T13:34:00.860Z,12.00
2023-01-05T13:37:01.329Z,12.10
2023-01-05T13:39:33.717Z,11.90
2023-01-05T13:42:13.574Z,11.80
2023-01-05T13:44:56.543Z,11.70
2023-01-05T13:47:53.830Z,11.60
2023-01-05T13:50:37.104Z,11.60
2023-01-05T13:53:17.614Z,11.50
2023-01-05T13:55:49.883Z,11.60
2023-01-05T13:58:34.706Z,11.50
2023-01-05T14:01:04.839Z,11.40
2023-01-05T14:03:39.043Z,11.40
2023-01-05T14:06:18.520Z,11.40
2023-01-05T14:08:53.750Z,11.40
2023-01-05T14:11:26.132Z,11.30
2023-01-05T14:13:52.733Z,11.40
2023-01-05T14:16:35.054Z,11.40
2023-01-05T14:19:45.030Z,11.40
2023-01-05T14:22:20.618Z,11.40
2023-01-05T14:24:48.122Z,11.40
2023-01-05T14:27:16.205Z,11.40
2023-01-05T14:29:48.976Z,11.40
2023-01-05T14:32:18.659Z,11.30
2023-01-05T14:34:50.963Z,11.30
2023-01-05T14:37:57.646Z,11.30
2023-01-05T14:40:44.842Z,11.20
2023-01-05T14:43:28.088Z,11.30
2023-01-05T14:46:09.468Z,11.30
2023-01-05T14:48:46.706Z,11.30
2023-01-05T14:51:23.529Z,11.30
2023-01-05T14:53:52.050Z,11.30
2023-01-05T14:56:22.566Z,11.30
2023-01-05T14:58:58.204Z,11.30
2023-01-05T15:01:30.571Z,11.30
2023-01-05T15:04:37.133Z,11.40
2023-01-05T15:07:19.865Z,11.40
2023-01-05T15:09:49.491Z,11.40
2023-01-05T15:12:35.821Z,11.40
2023-01-05T15:15:05.877Z,11.40
2023-01-05T15:17:52.165Z,11.40
2023-01-05T15:20:49.716Z,11.40
2023-01-05T15:23:31.363Z,11.40
2023-01-05T15:26:08.402Z,11.40
2023-01-05T15:28:54.949Z,11.40
2023-01-05T15:31:29.962Z,11.30
2023-01-05T15:34:27.182Z,11.30
2023-01-05T15:37:05.303Z,11.30
2023-01-05T15:39:44.095Z,11.30
2023-01-05T15:42:16.374Z,11.30
2023-01-05T15:44:47.115Z,11.30
2023-01-05T15:47:14.275Z,11.30
2023-01-05T15:49:41.349Z,11.30
2023-01-05T15:52:19.190Z,11.40
2023-01-05T15:54:57.419Z,11.40
2023-01-05T15:57:24.041Z,11.40
2023-01-05T15:59:51.871Z,11.30
2023-01-05T16:02:29.495Z,11.20
2023-01-05T16:05:33.889Z,11.30
2023-01-05T16:08:08.264Z,11.20
2023-01-05T16:10:42.875Z,11.20
2023-01-05T16:13:28.193Z,11.20
2023-01-05T16:15:58.569Z,11.20
2023-01-05T16:18:39.489Z,11.20
2023-01-05T16:21:24.165Z,11.10
2023-01-05T16:23:56.621Z,11.10
2023-01-05T16:26:23.724Z,11.10
2023-01-05T16:28:50.542Z,11.10
2023-01-05T16:31:51.358Z,11.00
2023-01-05T16:34:20.455Z,11.00
2023-01-05T16:37:15.287Z,10.90
2023-01-05T16:39:43.702Z,11.00
2023-01-05T16:42:40.254Z,10.90
2023-01-05T16:45:22.262Z,11.00
2023-01-05T16:47:49.750Z,11.00
2023-01-05T16:50:19.443Z,10.90
2023-01-05T16:52:59.640Z,10.90
2023-01-05T16:55:31.656Z,10.90
2023-01-05T16:57:59.744Z,10.90
2023-01-05T17:00:26.673Z,10.90
2023-01-05T17:03:00.628Z,11.00
2023-01-05T17:05:33.497Z,11.00
2023-01-05T17:08:13.829Z,10.90
2023-01-05T17:10:41.685Z,10.80
2023-01-05T17:13:21.168Z,10.70
2023-01-05T17:15:49.986Z,10.80
2023-01-05T17:18:27.293Z,10.70
2023-01-05T17:20:56.213Z,10.60
2023-01-05T17:23:28.881Z,10.70
2023-01-05T17:25:59.774Z,10.70
2023-01-05T17:28:26.388Z,10.60
2023-01-05T17:30:53.069Z,10.60
2023-01-05T17:33:20.335Z,10.60
2023-01-05T17:38:19.435Z,10.60
2023-01-05T17:40:46.107Z,10.60
2023-01-05T17:43:12.746Z,10.60
2023-01-05T17:45:43.742Z,10.60
2023-01-05T17:50:38.887Z,10.70
2023-01-05T17:53:05.747Z,10.70
2023-01-05T17:55:33.253Z,10.70
2023-01-05T17:58:00.364Z,10.70
2023-01-05T18:00:29.326Z,10.60
2023-01-05T18:02:56.343Z,10.70
2023-01-05T18:05:23.388Z,10.60
2023-01-05T18:07:50.510Z,10.70
2023-01-05T18:10:21.081Z,10.70
2023-01-05T18:12:47.824Z,10.60
2023-01-05T18:15:14.855Z,10.70
2023-01-05T18:17:42.444Z,10.60
2023-01-05T18:20:12.484Z,10.60
2023-01-05T18:22:39.735Z,10.70
2023-01-05T18:27:39.169Z,10.70
2023-01-05T18:30:07.402Z,10.70
2023-01-05T18:32:34.252Z,10.60
2023-01-05T18:35:04.341Z,10.70
2023-01-05T18:37:34.202Z,10.70
2023-01-05T18:40:00.825Z,10.70
2023-01-05T18:42:27.490Z,10.70
2023-01-05T18:44:54.116Z,10.70
2023-01-05T18:47:20.851Z,10.70
2023-01-05T18:49:47.523Z,10.70
2023-01-05T18:52:14.189Z,10.80
2023-01-05T18:54:41.031Z,10.80
2023-01-05T18:57:07.605Z,10.80
2023-01-05T18:59:34.316Z,10.80
2023-01-05T19:02:01.020Z,10.80
2023-01-05T19:04:27.724Z,10.90
2023-01-05T19:06:54.329Z,10.90
2023-01-05T19:09:20.929Z,10.90
2023-01-05T19:11:48.470Z,10.90
2023-01-05T19:14:16.211Z,10.90
2023-01-05T19:16:42.793Z,10.90
2023-01-05T19:19:12.237Z,11.00
2023-01-05T19:21:40.451Z,11.00
2023-01-05T19:24:13.263Z,11.00
2023-01-05T19:26:39.876Z,11.00
2023-01-05T19:29:06.595Z,11.00
2023-01-05T19:31:34.283Z,10.90
2023-01-05T19:34:00.956Z,11.00
2023-01-05T19:36:35.523Z,11.00
2023-01-05T19:39:15.061Z,11.00
2023-01-05T19:41:46.568Z,11.00
2023-01-05T19:44:16.996Z,11.10
2023-01-05T19:46:44.490Z,11.10
2023-01-05T19:49:19.433Z,11.00
2023-01-05T19:51:46.920Z,11.10
2023-01-05T19:54:14.867Z,11.00
2023-01-05T19:56:42.698Z,11.10
2023-01-05T19:59:36.163Z,11.10
2023-01-05T20:02:04.716Z,11.10
2023-01-05T20:04:31.958Z,11.10
2023-01-05T20:06:58.950Z,11.20
2023-01-05T20:09:25.577Z,11.20
2023-01-05T20:11:59.460Z,11.20
2023-01-05T20:14:32.726Z,11.10
2023-01-05T20:17:06.090Z,11.10
2023-01-05T20:19:34.625Z,11.20
2023-01-05T20:22:05.283Z,11.10
2023-01-05T20:24:33.975Z,11.20
2023-01-05T20:27:02.895Z,11.20
2023-01-05T20:29:30.320Z,11.20
2023-01-05T20:32:10.884Z,11.30
2023-01-05T20:34:39.405Z,11.30
2023-01-05T20:37:08.287Z,11.30
2023-01-05T20:39:36.165Z,11.30
2023-01-05T20:42:06.179Z,11.30
2023-01-05T20:44:38.313Z,11.30
2023-01-05T20:47:06.493Z,11.30
2023-01-05T20:49:34.425Z,11.30
2023-01-05T20:52:01.203Z,11.40
2023-01-05T20:54:27.933Z,11.40
2023-01-05T20:56:54.491Z,11.40
2023-01-05T20:59:24.983Z,11.40
2023-01-05T21:01:52.175Z,11.40
2023-01-05T21:04:19.505Z,11.40
2023-01-05T21:06:46.768Z,11.40
2023-01-05T21:09:14.115Z,11.40
2023-01-05T21:11:41.568Z,11.40
2023-01-05T21:14:08.911Z,11.40
2023-01-05T21:16:39.273Z,11.40
2023-01-05T21:19:07.126Z,11.40
2023-01-05T21:21:34.470Z,11.40
2023-01-05T21:24:02.318Z,11.40
2023-01-05T21:26:29.483Z,11.40
2023-01-05T21:28:56.295Z,11.40
2023-01-05T21:31:25.450Z,11.40
2023-01-05T21:33:53.045Z,11.40
2023-01-05T21:36:26.201Z,11.40
2023-01-05T21:39:01.624Z,11.40
2023-01-05T21:41:52.186Z,11.40
2023-01-05T21:44:19.788Z,11.40
2023-01-05T21:46:47.904Z,11.40
2023-01-05T21:49:14.926Z,11.40
2023-01-05T21:52:00.279Z,11.40
2023-01-05T21:54:45.647Z,11.40
2023-01-05T21:57:12.401Z,11.40
2023-01-05T21:59:39.830Z,11.40
2023-01-05T22:02:06.971Z,11.40
2023-01-05T22:04:33.625Z,11.40
2023-01-05T22:07:00.235Z,11.40
2023-01-05T22:09:26.895Z,11.40
2023-01-05T22:11:53.546Z,11.40
2023-01-05T22:14:20.159Z,11.40
2023-01-05T22:16:46.745Z,11.40
2023-01-05T22:19:13.366Z,11.40
2023-01-05T22:21:39.949Z,11.40
2023-01-05T22:24:07.150Z,11.40
2023-01-05T22:26:33.756Z,11.40
2023-01-05T22:29:00.618Z,11.40
2023-01-05T22:31:29.377Z,11.40
2023-01-05T22:33:58.483Z,11.40
2023-01-05T22:36:27.320Z,11.40
2023-01-05T22:38:55.406Z,11.30
2023-01-05T22:41:24.723Z,11.30
2023-01-05T22:43:51.757Z,11.30
2023-01-05T22:46:24.207Z,11.30
2023-01-05T22:48:52.293Z,11.30
2023-01-05T22:51:21.850Z,11.30
2023-01-05T22:53:49.304Z,11.30
2023-01-05T22:56:17.165Z,11.30
2023-01-05T22:58:44.062Z,11.30
2023-01-05T23:01:29.947Z,11.30
2023-01-05T23:03:58.478Z,11.30
2023-01-05T23:06:26.342Z,11.30
2023-01-05T23:08:54.676Z,11.30
2023-01-05T23:11:31.947Z,11.20
2023-01-05T23:14:00.457Z,11.20
2023-01-05T23:16:27.686Z,11.20
2023-01-05T23:18:54.865Z,11.20
2023-01-05T23:21:23.880Z,11.20
2023-01-05T23:23:55.692Z,11.20
2023-01-05T23:26:22.915Z,11.20
2023-01-05T23:28:49.892Z,11.20
2023-01-05T23:31:18.696Z,11.20
2023-01-05T23:33:46.883Z,11.20
2023-01-05T23:36:15.504Z,11.20
2023-01-05T23:38:42.281Z,11.20
2023-01-05T23:41:11.209Z,11.20
2023-01-05T23:43:39.360Z,11.20
2023-01-05T23:46:12.315Z,11.30
2023-01-05T23:48:39.470Z,11.20
2023-01-05T23:51:11.171Z,11.20
2023-01-05T23:53:37.784Z,11.20
2023-01-05T23:56:15.552Z,11.20
2023-01-05T23:58:43.045Z,11.20
